sensor_id;sensor_type;location;lat;lon;timestamp;pressure;altitude;pressure_sealevel;temperature;humidity
71778;BME280;59609;52.430;4.668;2023-04-01T00:01:57;98983.72;;;9.76;100.00
71778;BME280;59609;52.430;4.668;2023-04-01T00:04:22;98982.63;;;9.77;100.00
71778;BME280;59609;52.430;4.668;2023-04-01T00:06:48;98977.78;;;9.79;100.00
71778;BME280;59609;52.430;4.668;2023-04-01T00:09:14;98995.28;;;9.65;100.00
71778;BME280;59609;52.430;4.668;2023-04-01T00:11:40;98997.47;;;9.76;100.00
71778;BME280;59609;52.430;4.668;2023-04-01T00:14:06;99007.19;;;9.79;100.00
71778;BME280;59609;52.430;4.668;2023-04-01T00:16:32;99006.34;;;9.78;100.00
71778;BME280;59609;52.430;4.668;2023-04-01T00:18:58;98993.25;;;9.80;100.00
71778;BME280;59609;52.430;4.668;2023-04-01T00:21:25;98997.06;;;9.86;100.00
71778;BME280;59609;52.430;4.668;2023-04-01T00:23:50;99000.25;;;9.90;100.00
71778;BME280;59609;52.430;4.668;2023-04-01T00:26:16;99003.00;;;9.90;100.00
71778;BME280;59609;52.430;4.668;2023-04-01T00:28:47;99001.94;;;9.91;100.00
71778;BME280;59609;52.430;4.668;2023-04-01T00:31:12;99011.69;;;9.93;100.00
71778;BME280;59609;52.430;4.668;2023-04-01T00:33:39;99008.06;;;9.93;100.00
71778;BME280;59609;52.430;4.668;2023-04-01T00:36:25;99011.25;;;9.96;100.00
71778;BME280;59609;52.430;4.668;2023-04-01T00:38:51;99019.94;;;9.93;100.00
71778;BME280;59609;52.430;4.668;2023-04-01T00:41:18;99026.28;;;9.94;100.00
71778;BME280;59609;52.430;4.668;2023-04-01T00:43:46;99019.06;;;9.93;100.00
71778;BME280;59609;52.430;4.668;2023-04-01T00:46:12;99031.38;;;9.97;100.00
71778;BME280;59609;52.430;4.668;2023-04-01T00:48:41;99032.59;;;9.94;100.00
71778;BME280;59609;52.430;4.668;2023-04-01T00:51:18;99031.81;;;10.00;100.00
71778;BME280;59609;52.430;4.668;2023-04-01T00:53:48;99041.94;;;10.00;100.00
71778;BME280;59609;52.430;4.668;2023-04-01T00:56:16;99042.81;;;10.00;100.00
71778;BME280;59609;52.430;4.668;2023-04-01T00:58:46;99043.22;;;9.97;100.00
71778;BME280;59609;52.430;4.668;2023-04-01T01:01:13;99051.69;;;10.02;100.00
71778;BME280;59609;52.430;4.668;2023-04-01T01:03:38;99049.13;;;10.01;100.00
71778;BME280;59609;52.430;4.668;2023-04-01T01:06:46;99058.91;;;10.10;100.00
71778;BME280;59609;52.430;4.668;2023-04-01T01:22:37;99074.19;;;10.19;100.00
71778;BME280;59609;52.430;4.668;2023-04-01T01:27:31;99076.97;;;10.25;100.00
71778;BME280;59609;52.430;4.668;2023-04-01T01:37:45;99095.41;;;10.31;100.00
71778;BME280;59609;52.430;4.668;2023-04-01T01:40:15;99086.94;;;10.26;100.00
71778;BME280;59609;52.430;4.668;2023-04-01T01:42:45;99096.66;;;10.29;100.00
71778;BME280;59609;52.430;4.668;2023-04-01T01:45:12;99099.22;;;10.24;100.00
71778;BME280;59609;52.430;4.668;2023-04-01T01:47:40;99099.22;;;10.24;100.00
71778;BME280;59609;52.430;4.668;2023-04-01T01:50:08;99102.78;;;10.24;100.00
71778;BME280;59609;52.430;4.668;2023-04-01T01:52:34;99101.75;;;10.25;100.00
71778;BME280;59609;52.430;4.668;2023-04-01T01:55:00;99104.72;;;10.30;100.00
71778;BME280;59609;52.430;4.668;2023-04-01T01:57:31;99110.63;;;10.27;100.00
71778;BME280;59609;52.430;4.668;2023-04-01T02:00:04;99113.19;;;10.29;100.00
71778;BME280;59609;52.430;4.668;2023-04-01T02:02:39;99120.16;;;10.31;100.00
71778;BME280;59609;52.430;4.668;2023-04-01T02:05:07;99119.97;;;10.33;100.00
71778;BME280;59609;52.430;4.668;2023-04-01T02:07:35;99127.19;;;10.34;100.00
71778;BME280;59609;52.430;4.668;2023-04-01T02:10:01;99135.63;;;10.32;100.00
71778;BME280;59609;52.430;4.668;2023-04-01T02:12:28;99132.28;;;10.37;100.00
71778;BME280;59609;52.430;4.668;2023-04-01T02:14:58;99147.53;;;10.40;100.00
71778;BME280;59609;52.430;4.668;2023-04-01T02:17:27;99153.47;;;10.43;100.00
71778;BME280;59609;52.430;4.668;2023-04-01T02:20:11;99156.84;;;10.45;100.00
71778;BME280;59609;52.430;4.668;2023-04-01T02:22:40;99159.59;;;10.45;100.00
71778;BME280;59609;52.430;4.668;2023-04-01T02:25:10;99160.25;;;10.47;100.00
71778;BME280;59609;52.430;4.668;2023-04-01T02:27:37;99159.59;;;10.45;100.00
71778;BME280;59609;52.430;4.668;2023-04-01T02:30:03;99167.44;;;10.48;100.00
71778;BME280;59609;52.430;4.668;2023-04-01T02:32:31;99166.81;;;10.46;100.00
71778;BME280;59609;52.430;4.668;2023-04-01T02:34:58;99171.91;;;10.49;100.00
71778;BME280;59609;52.430;4.668;2023-04-01T02:37:25;99176.78;;;10.47;100.00
71778;BME280;59609;52.430;4.668;2023-04-01T02:39:50;99182.28;;;10.47;100.00
71778;BME280;59609;52.430;4.668;2023-04-01T02:42:16;99180.59;;;10.53;100.00
71778;BME280;59609;52.430;4.668;2023-04-01T02:44:41;99183.78;;;10.50;100.00
71778;BME280;59609;52.430;4.668;2023-04-01T02:47:06;99190.75;;;10.46;100.00
71778;BME280;59609;52.430;4.668;2023-04-01T02:49:32;99191.81;;;10.51;100.00
71778;BME280;59609;52.430;4.668;2023-04-01T02:51:57;99198.59;;;10.49;100.00
71778;BME280;59609;52.430;4.668;2023-04-01T02:54:22;99206.00;;;10.55;100.00
71778;BME280;59609;52.430;4.668;2023-04-01T02:56:48;99216.16;;;10.54;100.00
71778;BME280;59609;52.430;4.668;2023-04-01T02:59:13;99214.69;;;10.52;100.00
71778;BME280;59609;52.430;4.668;2023-04-01T03:01:39;99224.66;;;10.53;100.00
71778;BME280;59609;52.430;4.668;2023-04-01T03:04:04;99218.09;;;10.54;100.00
71778;BME280;59609;52.430;4.668;2023-04-01T03:06:30;99232.47;;;10.49;100.00
71778;BME280;59609;52.430;4.668;2023-04-01T03:08:56;99238.41;;;10.46;100.00
71778;BME280;59609;52.430;4.668;2023-04-01T03:11:21;99243.25;;;10.44;100.00
71778;BME280;59609;52.430;4.668;2023-04-01T03:13:47;99252.16;;;10.46;100.00
71778;BME280;59609;52.430;4.668;2023-04-01T03:16:15;99257.84;;;10.38;100.00
71778;BME280;59609;52.430;4.668;2023-04-01T03:18:41;99248.13;;;10.42;100.00
71778;BME280;59609;52.430;4.668;2023-04-01T03:21:17;99256.16;;;10.37;100.00
71778;BME280;59609;52.430;4.668;2023-04-01T03:23:43;99259.09;;;10.36;100.00
71778;BME280;59609;52.430;4.668;2023-04-01T03:26:09;99271.38;;;10.33;100.00
71778;BME280;59609;52.430;4.668;2023-04-01T03:28:35;99271.56;;;10.31;100.00
71778;BME280;59609;52.430;4.668;2023-04-01T03:31:00;99274.13;;;10.33;100.00
71778;BME280;59609;52.430;4.668;2023-04-01T03:33:25;99275.78;;;10.27;100.00
71778;BME280;59609;52.430;4.668;2023-04-01T03:35:51;99278.97;;;10.31;100.00
71778;BME280;59609;52.430;4.668;2023-04-01T03:38:17;99289.97;;;10.31;100.00
71778;BME280;59609;52.430;4.668;2023-04-01T03:40:44;99292.69;;;10.24;100.00
71778;BME280;59609;52.430;4.668;2023-04-01T03:43:10;99293.97;;;10.22;100.00
71778;BME280;59609;52.430;4.668;2023-04-01T03:45:36;99300.50;;;10.21;100.00
71778;BME280;59609;52.430;4.668;2023-04-01T03:48:01;99304.53;;;10.18;100.00
71778;BME280;59609;52.430;4.668;2023-04-01T03:50:27;99308.31;;;10.17;100.00
71778;BME280;59609;52.430;4.668;2023-04-01T03:52:52;99310.66;;;10.14;100.00
71778;BME280;59609;52.430;4.668;2023-04-01T03:55:18;99318.94;;;10.20;100.00
71778;BME280;59609;52.430;4.668;2023-04-01T03:57:43;99315.78;;;10.23;100.00
71778;BME280;59609;52.430;4.668;2023-04-01T04:00:10;99322.16;;;10.24;100.00
71778;BME280;59609;52.430;4.668;2023-04-01T04:02:35;99328.28;;;10.26;100.00
71778;BME280;59609;52.430;4.668;2023-04-01T04:05:01;99335.84;;;10.17;100.00
71778;BME280;59609;52.430;4.668;2023-04-01T04:07:26;99331.97;;;10.12;100.00
71778;BME280;59609;52.430;4.668;2023-04-01T04:09:52;99336.91;;;10.16;100.00
71778;BME280;59609;52.430;4.668;2023-04-01T04:12:17;99346.03;;;10.17;100.00
71778;BME280;59609;52.430;4.668;2023-04-01T04:14:42;99342.88;;;10.20;100.00
71778;BME280;59609;52.430;4.668;2023-04-01T04:17:10;99349.19;;;10.14;100.00
71778;BME280;59609;52.430;4.668;2023-04-01T04:19:41;99344.31;;;10.16;100.00
71778;BME280;59609;52.430;4.668;2023-04-01T04:22:07;99367.75;;;10.12;100.00
71778;BME280;59609;52.430;4.668;2023-04-01T04:24:34;99362.06;;;10.13;100.00
71778;BME280;59609;52.430;4.668;2023-04-01T04:27:00;99367.56;;;10.13;100.00
71778;BME280;59609;52.430;4.668;2023-04-01T04:29:25;99366.88;;;10.11;100.00
71778;BME280;59609;52.430;4.668;2023-04-01T04:31:50;99383.03;;;10.14;100.00
71778;BME280;59609;52.430;4.668;2023-04-01T04:34:16;99381.50;;;10.12;100.00
71778;BME280;59609;52.430;4.668;2023-04-01T04:36:43;99387.00;;;10.12;100.00
71778;BME280;59609;52.430;4.668;2023-04-01T04:39:09;99390.78;;;10.11;100.00
71778;BME280;59609;52.430;4.668;2023-04-01T04:41:37;99399.66;;;10.06;100.00
71778;BME280;59609;52.430;4.668;2023-04-01T04:44:03;99407.47;;;10.03;100.00
71778;BME280;59609;52.430;4.668;2023-04-01T04:46:28;99411.94;;;10.04;100.00
71778;BME280;59609;52.430;4.668;2023-04-01T04:48:54;99406.22;;;10.05;100.00
71778;BME280;59609;52.430;4.668;2023-04-01T04:51:21;99421.63;;;10.00;100.00
71778;BME280;59609;52.430;4.668;2023-04-01T04:53:47;99415.72;;;10.03;100.00
71778;BME280;59609;52.430;4.668;2023-04-01T04:56:13;99415.50;;;10.04;100.00
71778;BME280;59609;52.430;4.668;2023-04-01T04:58:38;99422.09;;;10.03;100.00
71778;BME280;59609;52.430;4.668;2023-04-01T05:01:12;99419.50;;;10.02;100.00
71778;BME280;59609;52.430;4.668;2023-04-01T05:03:38;99435.16;;;10.01;100.00
71778;BME280;59609;52.430;4.668;2023-04-01T05:06:04;99439.13;;;9.92;100.00
71778;BME280;59609;52.430;4.668;2023-04-01T05:08:29;99439.69;;;9.88;100.00
71778;BME280;59609;52.430;4.668;2023-04-01T05:10:57;99444.03;;;9.97;100.00
71778;BME280;59609;52.430;4.668;2023-04-01T05:13:23;99456.88;;;9.90;100.00
71778;BME280;59609;52.430;4.668;2023-04-01T05:15:48;99453.72;;;9.93;100.00
71778;BME280;59609;52.430;4.668;2023-04-01T05:18:13;99462.22;;;9.98;100.00
71778;BME280;59609;52.430;4.668;2023-04-01T05:20:45;99456.19;;;9.88;100.00
71778;BME280;59609;52.430;4.668;2023-04-01T05:23:10;99463.41;;;9.89;100.00
71778;BME280;59609;52.430;4.668;2023-04-01T05:25:38;99465.69;;;9.85;100.00
71778;BME280;59609;52.430;4.668;2023-04-01T05:28:03;99476.38;;;9.95;100.00
71778;BME280;59609;52.430;4.668;2023-04-01T05:30:29;99462.56;;;9.88;100.00
71778;BME280;59609;52.430;4.668;2023-04-01T05:32:54;99473.84;;;9.93;100.00
71778;BME280;59609;52.430;4.668;2023-04-01T05:35:19;99481.81;;;9.88;100.00
71778;BME280;59609;52.430;4.668;2023-04-01T05:37:45;99488.84;;;9.91;100.00
71778;BME280;59609;52.430;4.668;2023-04-01T05:40:10;99498.13;;;9.90;100.00
71778;BME280;59609;52.430;4.668;2023-04-01T05:42:36;99488.75;;;9.84;100.00
71778;BME280;59609;52.430;4.668;2023-04-01T05:45:02;99500.22;;;9.88;100.00
71778;BME280;59609;52.430;4.668;2023-04-01T05:47:27;99502.38;;;9.92;100.00
71778;BME280;59609;52.430;4.668;2023-04-01T05:49:52;99504.69;;;9.89;100.00
71778;BME280;59609;52.430;4.668;2023-04-01T05:52:18;99504.56;;;9.97;100.00
71778;BME280;59609;52.430;4.668;2023-04-01T05:54:43;99514.81;;;9.88;100.00
71778;BME280;59609;52.430;4.668;2023-04-01T05:57:09;99511.56;;;9.99;100.00
71778;BME280;59609;52.430;4.668;2023-04-01T05:59:37;99518.72;;;9.94;100.00
71778;BME280;59609;52.430;4.668;2023-04-01T06:02:02;99511.56;;;9.99;100.00
71778;BME280;59609;52.430;4.668;2023-04-01T06:04:33;99523.88;;;10.03;100.00
71778;BME280;59609;52.430;4.668;2023-04-01T06:06:59;99527.69;;;10.02;100.00
71778;BME280;59609;52.430;4.668;2023-04-01T06:09:29;99524.53;;;10.05;100.00
71778;BME280;59609;52.430;4.668;2023-04-01T06:14:37;99544.72;;;10.12;100.00
71778;BME280;59609;52.430;4.668;2023-04-01T06:17:16;99546.25;;;10.15;100.00
71778;BME280;59609;52.430;4.668;2023-04-01T06:30:46;99563.78;;;9.93;100.00
71778;BME280;59609;52.430;4.668;2023-04-01T06:33:33;99564.31;;;10.03;100.00
71778;BME280;59609;52.430;4.668;2023-04-01T06:50:19;99595.00;;;10.21;100.00
71778;BME280;59609;52.430;4.668;2023-04-01T06:52:56;99602.69;;;10.25;100.00
71778;BME280;59609;52.430;4.668;2023-04-01T06:55:34;99593.31;;;10.20;100.00
71778;BME280;59609;52.430;4.668;2023-04-01T06:58:04;99600.44;;;10.14;100.00
71778;BME280;59609;52.430;4.668;2023-04-01T07:00:35;99603.47;;;10.19;100.00
71778;BME280;59609;52.430;4.668;2023-04-01T07:03:06;99618.41;;;10.31;100.00
71778;BME280;59609;52.430;4.668;2023-04-01T07:05:35;99624.31;;;10.28;100.00
71778;BME280;59609;52.430;4.668;2023-04-01T07:08:04;99616.13;;;10.14;100.00
71778;BME280;59609;52.430;4.668;2023-04-01T07:10:48;99631.06;;;10.26;100.00
71778;BME280;59609;52.430;4.668;2023-04-01T07:13:23;99630.28;;;10.32;100.00
71778;BME280;59609;52.430;4.668;2023-04-01T07:16:11;99636.75;;;10.24;100.00
71778;BME280;59609;52.430;4.668;2023-04-01T07:21:49;99643.66;;;10.35;100.00
71778;BME280;59609;52.430;4.668;2023-04-01T07:24:29;99652.00;;;10.42;100.00
71778;BME280;59609;52.430;4.668;2023-04-01T07:26:57;99646.94;;;10.45;100.00
71778;BME280;59609;52.430;4.668;2023-04-01T07:29:24;99649.97;;;10.50;100.00
71778;BME280;59609;52.430;4.668;2023-04-01T07:34:39;99658.25;;;10.50;100.00
71778;BME280;59609;52.430;4.668;2023-04-01T07:37:17;99666.66;;;10.63;100.00
71778;BME280;59609;52.430;4.668;2023-04-01T07:42:28;99671.53;;;10.68;100.00
71778;BME280;59609;52.430;4.668;2023-04-01T07:55:24;99687.56;;;10.79;100.00
71778;BME280;59609;52.430;4.668;2023-04-01T08:06:12;99701.16;;;10.80;100.00
71778;BME280;59609;52.430;4.668;2023-04-01T08:20:10;99729.81;;;11.07;100.00
71778;BME280;59609;52.430;4.668;2023-04-01T08:22:26;99729.88;;;11.14;100.00
71778;BME280;59609;52.430;4.668;2023-04-01T08:24:54;99720.81;;;11.20;100.00
71778;BME280;59609;52.430;4.668;2023-04-01T08:27:36;99735.63;;;11.19;100.00
71778;BME280;59609;52.430;4.668;2023-04-01T08:30:16;99736.22;;;11.14;100.00
71778;BME280;59609;52.430;4.668;2023-04-01T08:32:49;99741.97;;;11.13;100.00
71778;BME280;59609;52.430;4.668;2023-04-01T08:37:53;99750.22;;;11.34;100.00
71778;BME280;59609;52.430;4.668;2023-04-01T08:41:08;99757.50;;;11.20;100.00
71778;BME280;59609;52.430;4.668;2023-04-01T08:54:55;99766.44;;;11.22;100.00
71778;BME280;59609;52.430;4.668;2023-04-01T09:00:33;99777.06;;;11.25;100.00
71778;BME280;59609;52.430;4.668;2023-04-01T09:30:31;99808.81;;;11.64;100.00
71778;BME280;59609;52.430;4.668;2023-04-01T09:36:04;99813.22;;;11.58;100.00
71778;BME280;59609;52.430;4.668;2023-04-01T09:41:29;99815.84;;;11.45;100.00
71778;BME280;59609;52.430;4.668;2023-04-01T10:23:25;99872.00;;;12.29;100.00
71778;BME280;59609;52.430;4.668;2023-04-01T10:34:13;99870.41;;;12.82;100.00
71778;BME280;59609;52.430;4.668;2023-04-01T10:36:57;99867.94;;;13.00;100.00
71778;BME280;59609;52.430;4.668;2023-04-01T10:42:27;99880.34;;;13.11;100.00
71778;BME280;59609;52.430;4.668;2023-04-01T10:48:23;99881.38;;;13.77;100.00
71778;BME280;59609;52.430;4.668;2023-04-01T10:51:04;99877.50;;;13.71;100.00
71778;BME280;59609;52.430;4.668;2023-04-01T10:53:55;99879.91;;;13.87;100.00
71778;BME280;59609;52.430;4.668;2023-04-01T11:33:23;99932.56;;;14.40;100.00
71778;BME280;59609;52.430;4.668;2023-04-01T11:36:05;99932.28;;;13.96;100.00
71778;BME280;59609;52.430;4.668;2023-04-01T11:38:42;99936.78;;;13.97;100.00
71778;BME280;59609;52.430;4.668;2023-04-01T11:41:20;99936.31;;;13.73;100.00
71778;BME280;59609;52.430;4.668;2023-04-01T11:46:56;99942.31;;;13.97;100.00
71778;BME280;59609;52.430;4.668;2023-04-01T11:52:52;99947.94;;;13.49;100.00
71778;BME280;59609;52.430;4.668;2023-04-01T11:55:40;99957.47;;;13.33;100.00
71778;BME280;59609;52.430;4.668;2023-04-01T12:01:54;99962.69;;;13.15;100.00
71778;BME280;59609;52.430;4.668;2023-04-01T12:12:14;99979.75;;;13.79;100.00
71778;BME280;59609;52.430;4.668;2023-04-01T12:14:54;99978.75;;;14.00;100.00
71778;BME280;59609;52.430;4.668;2023-04-01T12:25:34;99992.88;;;14.71;100.00
71778;BME280;59609;52.430;4.668;2023-04-01T12:38:57;100021.88;;;14.68;100.00
71778;BME280;59609;52.430;4.668;2023-04-01T12:55:41;100047.22;;;13.72;100.00
71778;BME280;59609;52.430;4.668;2023-04-01T13:14:20;100066.41;;;13.05;100.00
71778;BME280;59609;52.430;4.668;2023-04-01T13:16:59;100068.09;;;12.78;100.00
71778;BME280;59609;52.430;4.668;2023-04-01T13:29:57;100095.06;;;12.48;100.00
71778;BME280;59609;52.430;4.668;2023-04-01T13:32:29;100102.31;;;12.49;100.00
71778;BME280;59609;52.430;4.668;2023-04-01T13:43:55;100117.09;;;12.63;100.00
71778;BME280;59609;52.430;4.668;2023-04-01T13:54:35;100127.69;;;12.80;100.00
71778;BME280;59609;52.430;4.668;2023-04-01T14:00:00;100140.31;;;12.89;100.00
71778;BME280;59609;52.430;4.668;2023-04-01T14:02:50;100137.03;;;13.01;100.00
71778;BME280;59609;52.430;4.668;2023-04-01T14:11:17;100153.13;;;13.18;100.00
71778;BME280;59609;52.430;4.668;2023-04-01T14:17:06;100161.19;;;13.13;100.00
71778;BME280;59609;52.430;4.668;2023-04-01T14:28:13;100186.06;;;12.71;100.00
71778;BME280;59609;52.430;4.668;2023-04-01T14:33:25;100205.38;;;12.50;100.00
71778;BME280;59609;52.430;4.668;2023-04-01T14:36:02;100203.63;;;12.63;100.00
71778;BME280;59609;52.430;4.668;2023-04-01T14:38:43;100212.50;;;12.59;100.00
71778;BME280;59609;52.430;4.668;2023-04-01T14:41:34;100211.06;;;12.27;100.00
71778;BME280;59609;52.430;4.668;2023-04-01T14:47:19;100227.66;;;12.12;100.00
71778;BME280;59609;52.430;4.668;2023-04-01T14:49:51;100229.47;;;12.20;100.00
71778;BME280;59609;52.430;4.668;2023-04-01T14:52:27;100233.56;;;12.24;100.00
71778;BME280;59609;52.430;4.668;2023-04-01T14:54:54;100242.97;;;12.15;100.00
71778;BME280;59609;52.430;4.668;2023-04-01T14:57:31;100243.75;;;12.23;100.00
71778;BME280;59609;52.430;4.668;2023-04-01T15:00:13;100247.47;;;12.16;100.00
71778;BME280;59609;52.430;4.668;2023-04-01T15:08:14;100259.06;;;12.11;100.00
71778;BME280;59609;52.430;4.668;2023-04-01T15:19:40;100288.63;;;12.11;100.00
71778;BME280;59609;52.430;4.668;2023-04-01T15:36:32;100326.38;;;11.58;100.00
71778;BME280;59609;52.430;4.668;2023-04-01T15:41:38;100339.28;;;11.43;100.00
71778;BME280;59609;52.430;4.668;2023-04-01T15:46:58;100353.44;;;11.40;100.00
71778;BME280;59609;52.430;4.668;2023-04-01T15:49:43;100353.31;;;11.33;100.00
71778;BME280;59609;52.430;4.668;2023-04-01T15:55:11;100364.94;;;11.21;100.00
71778;BME280;59609;52.430;4.668;2023-04-01T15:57:43;100370.81;;;11.18;100.00
71778;BME280;59609;52.430;4.668;2023-04-01T16:00:41;100371.81;;;11.25;100.00
71778;BME280;59609;52.430;4.668;2023-04-01T16:03:42;100388.16;;;11.04;100.00
71778;BME280;59609;52.430;4.668;2023-04-01T16:11:47;100397.09;;;11.06;100.00
71778;BME280;59609;52.430;4.668;2023-04-01T16:17:07;100411.59;;;11.00;100.00
71778;BME280;59609;52.430;4.668;2023-04-01T16:20:02;100405.75;;;10.95;100.00
71778;BME280;59609;52.430;4.668;2023-04-01T16:22:45;100418.19;;;10.91;100.00
71778;BME280;59609;52.430;4.668;2023-04-01T16:25:26;100421.84;;;10.83;100.00
71778;BME280;59609;52.430;4.668;2023-04-01T16:28:08;100418.81;;;10.70;100.00
71778;BME280;59609;52.430;4.668;2023-04-01T16:30:50;100428.75;;;10.79;100.00
71778;BME280;59609;52.430;4.668;2023-04-01T16:47:12;100452.59;;;10.56;100.00
71778;BME280;59609;52.430;4.668;2023-04-01T16:49:51;100474.28;;;10.59;100.00
71778;BME280;59609;52.430;4.668;2023-04-01T16:55:03;100480.28;;;10.54;100.00
71778;BME280;59609;52.430;4.668;2023-04-01T16:57:51;100489.78;;;10.60;100.00
71778;BME280;59609;52.430;4.668;2023-04-01T17:00:41;100491.97;;;10.64;100.00
71778;BME280;59609;52.430;4.668;2023-04-01T17:03:17;100504.56;;;10.67;100.00
71778;BME280;59609;52.430;4.668;2023-04-01T17:06:22;100508.88;;;10.61;100.00
71778;BME280;59609;52.430;4.668;2023-04-01T17:17:31;100513.03;;;10.49;100.00
71778;BME280;59609;52.430;4.668;2023-04-01T17:25:36;100548.84;;;10.41;100.00
71778;BME280;59609;52.430;4.668;2023-04-01T17:31:10;100566.91;;;10.27;100.00
71778;BME280;59609;52.430;4.668;2023-04-01T17:39:42;100590.00;;;10.26;100.00
71778;BME280;59609;52.430;4.668;2023-04-01T17:42:19;100591.69;;;10.19;100.00
71778;BME280;59609;52.430;4.668;2023-04-01T17:45:24;100615.41;;;10.12;100.00
71778;BME280;59609;52.430;4.668;2023-04-01T17:48:13;100605.56;;;10.02;100.00
71778;BME280;59609;52.430;4.668;2023-04-01T17:53:51;100630.63;;;9.82;100.00
71778;BME280;59609;52.430;4.668;2023-04-01T18:07:37;100654.47;;;9.66;100.00
71778;BME280;59609;52.430;4.668;2023-04-01T18:10:13;100670.50;;;9.70;100.00
71778;BME280;59609;52.430;4.668;2023-04-01T18:15:46;100682.84;;;9.66;100.00
71778;BME280;59609;52.430;4.668;2023-04-01T18:23:47;100702.06;;;9.58;100.00
71778;BME280;59609;52.430;4.668;2023-04-01T18:26:22;100711.38;;;9.65;100.00
71778;BME280;59609;52.430;4.668;2023-04-01T18:28:59;100715.47;;;9.61;100.00
71778;BME280;59609;52.430;4.668;2023-04-01T18:31:34;100718.22;;;9.61;100.00
71778;BME280;59609;52.430;4.668;2023-04-01T18:34:10;100729.75;;;9.65;100.00
71778;BME280;59609;52.430;4.668;2023-04-01T18:37:37;100735.25;;;9.57;100.00
71778;BME280;59609;52.430;4.668;2023-04-01T18:39:57;100752.06;;;9.54;100.00
71778;BME280;59609;52.430;4.668;2023-04-01T18:42:45;100753.22;;;9.51;100.00
71778;BME280;59609;52.430;4.668;2023-04-01T18:45:22;100762.31;;;9.44;100.00
71778;BME280;59609;52.430;4.668;2023-04-01T18:50:43;100775.53;;;9.40;100.00
71778;BME280;59609;52.430;4.668;2023-04-01T18:53:26;100784.66;;;9.23;100.00
71778;BME280;59609;52.430;4.668;2023-04-01T18:56:01;100796.34;;;9.25;100.00
71778;BME280;59609;52.430;4.668;2023-04-01T19:03:55;100809.56;;;9.21;100.00
71778;BME280;59609;52.430;4.668;2023-04-01T19:06:51;100817.25;;;9.18;100.00
71778;BME280;59609;52.430;4.668;2023-04-01T19:12:03;100824.16;;;9.22;100.00
71778;BME280;59609;52.430;4.668;2023-04-01T19:17:25;100841.91;;;9.27;100.00
71778;BME280;59609;52.430;4.668;2023-04-01T19:36:44;100887.31;;;8.96;100.00
71778;BME280;59609;52.430;4.668;2023-04-01T19:42:21;100889.88;;;8.98;100.00
71778;BME280;59609;52.430;4.668;2023-04-01T19:45:04;100895.69;;;8.95;100.00
71778;BME280;59609;52.430;4.668;2023-04-01T19:50:20;100905.88;;;8.85;100.00
71778;BME280;59609;52.430;4.668;2023-04-01T19:52:50;100913.56;;;8.81;100.00
71778;BME280;59609;52.430;4.668;2023-04-01T19:55:35;100919.06;;;8.81;100.00
71778;BME280;59609;52.430;4.668;2023-04-01T20:00:56;100928.09;;;8.73;100.00
71778;BME280;59609;52.430;4.668;2023-04-01T20:03:29;100939.66;;;8.67;100.00
71778;BME280;59609;52.430;4.668;2023-04-01T20:06:17;100943.19;;;8.60;100.00
71778;BME280;59609;52.430;4.668;2023-04-01T20:09:11;100947.94;;;8.58;100.00
71778;BME280;59609;52.430;4.668;2023-04-01T20:14:40;100968.53;;;8.54;100.00
71778;BME280;59609;52.430;4.668;2023-04-01T20:19:58;100968.97;;;8.49;100.00
71778;BME280;59609;52.430;4.668;2023-04-01T20:22:34;100983.13;;;8.45;100.00
71778;BME280;59609;52.430;4.668;2023-04-01T20:25:46;100974.50;;;8.40;100.00
71778;BME280;59609;52.430;4.668;2023-04-01T20:53:13;101041.53;;;8.37;100.00
71778;BME280;59609;52.430;4.668;2023-04-01T20:56:15;101047.75;;;8.39;100.00
71778;BME280;59609;52.430;4.668;2023-04-01T20:59:09;101066.97;;;8.39;100.00
71778;BME280;59609;52.430;4.668;2023-04-01T21:01:51;101063.94;;;8.23;100.00
71778;BME280;59609;52.430;4.668;2023-04-01T21:05:00;101061.75;;;8.26;100.00
71778;BME280;59609;52.430;4.668;2023-04-01T21:15:27;101097.59;;;8.15;100.00
71778;BME280;59609;52.430;4.668;2023-04-01T21:23:46;101107.69;;;8.05;100.00
71778;BME280;59609;52.430;4.668;2023-04-01T21:32:29;101122.56;;;8.12;100.00
71778;BME280;59609;52.430;4.668;2023-04-01T21:48:27;101158.66;;;7.89;100.00
71778;BME280;59609;52.430;4.668;2023-04-01T21:51:15;101162.09;;;7.91;100.00
71778;BME280;59609;52.430;4.668;2023-04-01T22:07:42;101194.19;;;7.90;100.00
71778;BME280;59609;52.430;4.668;2023-04-01T22:12:56;101200.22;;;7.84;100.00
71778;BME280;59609;52.430;4.668;2023-04-01T22:18:18;101208.88;;;7.80;100.00
71778;BME280;59609;52.430;4.668;2023-04-01T22:21:09;101217.38;;;7.76;100.00
71778;BME280;59609;52.430;4.668;2023-04-01T22:26:13;101232.34;;;7.63;100.00
71778;BME280;59609;52.430;4.668;2023-04-01T22:31:37;101243.59;;;7.60;100.00
71778;BME280;59609;52.430;4.668;2023-04-01T22:34:13;101243.91;;;7.66;100.00
71778;BME280;59609;52.430;4.668;2023-04-01T22:39:33;101253.81;;;7.58;100.00
71778;BME280;59609;52.430;4.668;2023-04-01T22:47:44;101265.25;;;7.63;100.00
71778;BME280;59609;52.430;4.668;2023-04-01T22:52:47;101274.16;;;7.55;100.00
71778;BME280;59609;52.430;4.668;2023-04-01T22:55:23;101274.72;;;7.49;100.00
71778;BME280;59609;52.430;4.668;2023-04-01T22:58:05;101277.84;;;7.45;100.00
71778;BME280;59609;52.430;4.668;2023-04-01T23:00:39;101290.88;;;7.52;100.00
71778;BME280;59609;52.430;4.668;2023-04-01T23:05:50;101303.72;;;7.52;100.00
71778;BME280;59609;52.430;4.668;2023-04-01T23:11:32;101304.81;;;7.40;100.00
71778;BME280;59609;52.430;4.668;2023-04-01T23:14:21;101317.38;;;7.42;100.00
71778;BME280;59609;52.430;4.668;2023-04-01T23:17:05;101317.88;;;7.27;100.00
71778;BME280;59609;52.430;4.668;2023-04-01T23:25:04;101338.50;;;7.31;100.00
71778;BME280;59609;52.430;4.668;2023-04-01T23:27:38;101339.09;;;7.34;100.00
71778;BME280;59609;52.430;4.668;2023-04-01T23:33:23;101338.59;;;7.19;100.00